Aviation Digital Data Service (ADDS)

Output produced by METARs form (1259 UTC 25 May 2016)
found at http://aviationweather.gov/adds/metars/
 
KARA 251253Z 13008KT 8SM FEW007 FEW016 26/24 A3010 RMK AO2 SLP193 T02560239